createdAt,value
2022-12-26T00:02:34.660Z,100674.50
2022-12-26T00:07:36.229Z,100667.56
2022-12-26T00:12:37.733Z,100664.97
2022-12-26T00:17:39.457Z,100641.66
2022-12-26T00:22:40.916Z,100640.81
2022-12-26T00:27:42.342Z,100647.75
2022-12-26T00:32:43.888Z,100644.22
2022-12-26T00:37:45.370Z,100629.53
2022-12-26T00:42:46.958Z,100622.69
2022-12-26T00:47:48.396Z,100619.31
2022-12-26T00:52:49.876Z,100638.31
2022-12-26T00:57:51.388Z,100649.41
2022-12-26T01:02:52.959Z,100629.59
2022-12-26T01:08:21.912Z,100641.59
2022-12-26T01:13:15.921Z,100627.84
2022-12-26T01:18:17.981Z,100617.44
2022-12-26T01:23:19.422Z,100621.78
2022-12-26T01:28:20.961Z,100622.63
2022-12-26T01:33:22.378Z,100629.53
2022-12-26T01:38:24.670Z,100645.13
2022-12-26T01:43:26.148Z,100634.78
2022-12-26T01:48:34.429Z,100641.50
2022-12-26T01:53:39.558Z,100639.78
2022-12-26T01:58:49.244Z,100629.44
2022-12-26T02:04:09.996Z,100628.53
2022-12-26T02:09:11.841Z,100626.03
2022-12-26T02:14:13.491Z,100639.69
2022-12-26T02:19:36.062Z,100623.38
2022-12-26T02:25:05.746Z,100626.88
2022-12-26T02:30:44.425Z,100621.56
2022-12-26T02:36:12.183Z,100624.94
2022-12-26T02:41:25.581Z,100623.13
2022-12-26T02:47:01.365Z,100635.22
2022-12-26T02:52:34.183Z,100637.81
2022-12-26T02:58:04.255Z,100623.16
2022-12-26T03:03:30.270Z,100623.13
2022-12-26T03:09:02.403Z,100630.97
2022-12-26T03:14:16.330Z,100631.81
2022-12-26T03:19:19.978Z,100624.84
2022-12-26T03:24:22.829Z,100616.16
2022-12-26T03:29:43.126Z,100615.19
2022-12-26T03:34:44.953Z,100607.56
2022-12-26T03:40:12.622Z,100610.88
2022-12-26T03:45:38.971Z,100610.72
2022-12-26T03:51:07.653Z,100606.56
2022-12-26T03:56:43.155Z,100604.84
2022-12-26T04:02:07.410Z,100611.75
2022-12-26T04:07:32.965Z,100609.94
2022-12-26T04:13:07.277Z,100606.50
2022-12-26T04:18:33.388Z,100606.38
2022-12-26T04:24:04.713Z,100608.91
2022-12-26T04:29:25.138Z,100608.16
2022-12-26T04:34:51.754Z,100599.47
2022-12-26T04:40:14.683Z,100596.00
2022-12-26T04:45:16.496Z,100600.13
2022-12-26T04:50:17.956Z,100604.53
2022-12-26T04:55:19.487Z,100595.06
2022-12-26T05:00:24.002Z,100603.63
2022-12-26T05:05:44.051Z,100613.03
2022-12-26T05:10:45.501Z,100613.03
2022-12-26T05:16:05.493Z,100601.88
2022-12-26T05:21:32.188Z,100597.47
2022-12-26T05:26:52.074Z,100602.69
2022-12-26T05:31:53.758Z,100606.09
2022-12-26T05:36:58.580Z,100609.44
2022-12-26T05:42:00.151Z,100598.28
2022-12-26T05:47:01.705Z,100594.59
2022-12-26T05:52:03.423Z,100592.91
2022-12-26T05:57:04.873Z,100587.75
2022-12-26T06:02:06.486Z,100586.78
2022-12-26T06:07:08.023Z,100591.91
2022-12-26T06:12:09.437Z,100596.41
2022-12-26T06:17:11.219Z,100601.34
2022-12-26T06:22:12.923Z,100591.84
2022-12-26T06:27:14.375Z,100595.38
2022-12-26T06:32:16.010Z,100597.03
2022-12-26T06:37:17.465Z,100604.13
2022-12-26T06:42:18.898Z,100610.88
2022-12-26T06:47:20.467Z,100584.13
2022-12-26T06:52:21.943Z,100581.50
2022-12-26T06:57:23.378Z,100591.06
2022-12-26T07:02:25.008Z,100598.78
2022-12-26T07:07:26.589Z,100601.28
2022-12-26T07:12:28.080Z,100603.00
2022-12-26T07:17:29.579Z,100601.25
2022-12-26T07:22:31.233Z,100607.31
2022-12-26T07:27:32.709Z,100607.34
2022-12-26T07:32:34.219Z,100608.97
2022-12-26T07:37:35.684Z,100615.09
2022-12-26T07:42:37.118Z,100630.59
2022-12-26T07:47:38.659Z,100623.69
2022-12-26T07:52:40.254Z,100622.75
2022-12-26T07:57:49.664Z,100624.31
2022-12-26T08:02:53.113Z,100622.63
2022-12-26T08:07:54.584Z,100611.25
2022-12-26T08:12:56.151Z,100606.09
2022-12-26T08:17:57.894Z,100599.97
2022-12-26T08:22:59.397Z,100599.09
2022-12-26T08:28:00.944Z,100599.78
2022-12-26T08:33:02.432Z,100597.13
2022-12-26T08:38:04.758Z,100584.03
2022-12-26T08:43:42.152Z,100587.44
2022-12-26T08:48:28.928Z,100578.75
2022-12-26T08:53:32.700Z,100571.66
2022-12-26T08:58:35.281Z,100576.84
2022-12-26T09:03:37.106Z,100573.31
2022-12-26T09:08:39.352Z,100574.81
2022-12-26T09:13:41.974Z,100579.09
2022-12-26T09:18:45.216Z,100567.84
2022-12-26T09:23:46.695Z,100560.47
2022-12-26T09:28:48.250Z,100553.53
2022-12-26T09:33:50.226Z,100551.50
2022-12-26T09:38:52.584Z,100547.66
2022-12-26T09:44:07.477Z,100557.66
2022-12-26T09:49:26.294Z,100557.38
2022-12-26T09:54:33.188Z,100542.84
2022-12-26T09:59:46.058Z,100558.56
2022-12-26T10:04:47.912Z,100557.19
2022-12-26T10:10:18.695Z,100550.94
2022-12-26T10:15:47.026Z,100550.88
2022-12-26T10:21:03.732Z,100546.78
2022-12-26T10:26:24.545Z,100531.03
2022-12-26T10:31:35.246Z,100534.28
2022-12-26T10:36:46.682Z,100519.94
2022-12-26T10:41:52.507Z,100528.09
2022-12-26T10:47:04.012Z,100527.47
2022-12-26T10:52:05.630Z,100511.94
2022-12-26T10:57:09.394Z,100515.97
2022-12-26T11:02:22.874Z,100507.91
2022-12-26T11:07:27.644Z,100494.03
2022-12-26T11:12:51.044Z,100496.44
2022-12-26T11:17:54.090Z,100479.97
2022-12-26T11:23:12.308Z,100465.03
2022-12-26T11:28:34.462Z,100463.56
2022-12-26T11:33:46.386Z,100465.38
2022-12-26T11:38:50.067Z,100446.56
2022-12-26T11:43:53.024Z,100442.53
2022-12-26T11:48:54.575Z,100444.38
2022-12-26T11:54:17.810Z,100438.31
2022-12-26T11:59:22.098Z,100443.53
2022-12-26T12:04:23.622Z,100438.56
2022-12-26T12:09:46.814Z,100438.69
2022-12-26T12:15:16.147Z,100421.38
2022-12-26T12:20:25.088Z,100436.53
2022-12-26T12:25:38.233Z,100426.00
2022-12-26T12:31:00.541Z,100428.13
2022-12-26T12:36:20.212Z,100431.00
2022-12-26T12:41:59.720Z,100466.75
2022-12-26T12:47:15.731Z,100455.66
2022-12-26T12:52:38.323Z,100465.81
2022-12-26T12:58:11.952Z,100472.50
2022-12-26T13:03:36.583Z,100452.06
2022-12-26T13:08:46.766Z,100463.69
2022-12-26T13:14:12.078Z,100475.34
2022-12-26T13:19:21.650Z,100496.47
2022-12-26T13:24:35.363Z,100500.75
2022-12-26T13:29:42.502Z,100503.47
2022-12-26T13:34:45.681Z,100542.50
2022-12-26T13:39:51.747Z,100558.44
2022-12-26T13:44:54.025Z,100575.22
2022-12-26T13:49:55.488Z,100578.03
2022-12-26T13:54:57.357Z,100591.06
2022-12-26T14:00:04.842Z,100604.06
2022-12-26T14:05:18.783Z,100630.25
2022-12-26T14:10:32.949Z,100653.59
2022-12-26T14:15:40.992Z,100665.88
2022-12-26T14:20:52.544Z,100690.16
2022-12-26T14:26:23.472Z,100706.66
2022-12-26T14:31:47.943Z,100718.94
2022-12-26T14:36:55.300Z,100726.69
2022-12-26T14:42:57.415Z,100739.66
2022-12-26T14:47:59.162Z,100752.75
2022-12-26T14:53:28.271Z,100769.31
2022-12-26T14:58:40.749Z,100780.63
2022-12-26T15:04:01.088Z,100791.91
2022-12-26T15:09:08.485Z,100812.72
2022-12-26T15:14:28.006Z,100812.78
2022-12-26T15:19:54.130Z,100824.09
2022-12-26T15:30:28.536Z,100831.13
2022-12-26T15:35:43.722Z,100838.91
2022-12-26T15:41:00.819Z,100842.38
2022-12-26T15:46:27.664Z,100848.41
2022-12-26T15:51:44.265Z,100862.19
2022-12-26T15:56:59.666Z,100865.66
2022-12-26T16:02:01.638Z,100865.63
2022-12-26T16:07:15.773Z,100879.44
2022-12-26T16:12:28.789Z,100894.97
2022-12-26T16:17:30.686Z,100898.47
2022-12-26T16:22:46.320Z,100914.03
2022-12-26T16:27:51.203Z,100913.97
2022-12-26T16:32:53.795Z,100930.34
2022-12-26T16:38:00.847Z,100930.34
2022-12-26T16:43:27.822Z,100928.59
2022-12-26T16:48:31.871Z,100923.44
2022-12-26T16:53:36.357Z,100927.75
2022-12-26T16:58:38.212Z,100935.53
2022-12-26T17:03:52.024Z,100943.25
2022-12-26T17:08:55.513Z,100946.69
2022-12-26T17:13:58.162Z,100944.16
2022-12-26T17:19:16.579Z,100950.19
2022-12-26T17:24:25.365Z,100963.16
2022-12-26T17:29:46.103Z,100966.56
2022-12-26T17:34:48.029Z,100963.97
2022-12-26T17:40:12.056Z,100972.59
2022-12-26T17:45:33.973Z,100972.59
2022-12-26T17:50:38.796Z,100970.03
2022-12-26T17:55:41.346Z,100975.22
2022-12-26T18:00:44.099Z,100976.09
2022-12-26T18:05:47.356Z,100982.13
2022-12-26T18:10:48.811Z,100979.53
2022-12-26T18:15:51.725Z,100989.91
2022-12-26T18:20:53.375Z,100995.03
2022-12-26T18:26:00.493Z,101013.16
2022-12-26T18:31:02.103Z,100996.75
2022-12-26T18:36:07.625Z,100988.16
2022-12-26T18:41:14.158Z,100996.75
2022-12-26T18:46:25.253Z,101015.72
2022-12-26T18:51:27.897Z,101014.03
2022-12-26T18:56:29.624Z,101008.84
2022-12-26T19:01:31.297Z,101014.84
2022-12-26T19:06:35.172Z,101023.47
2022-12-26T19:11:36.653Z,101017.41
2022-12-26T19:16:38.708Z,101011.34
2022-12-26T19:21:40.318Z,101021.69
2022-12-26T19:26:41.793Z,101028.56
2022-12-26T19:31:43.532Z,101024.31
2022-12-26T19:36:45.102Z,101033.75
2022-12-26T19:41:47.812Z,101037.25
2022-12-26T19:46:49.279Z,101048.44
2022-12-26T19:52:11.741Z,101040.69
2022-12-26T19:57:13.149Z,101052.78
2022-12-26T20:02:14.962Z,101065.69
2022-12-26T20:07:16.528Z,101065.63
2022-12-26T20:12:17.970Z,101075.13
2022-12-26T20:17:19.503Z,101091.50
2022-12-26T20:22:20.963Z,101079.47
2022-12-26T20:27:22.556Z,101086.41
2022-12-26T20:32:24.117Z,101098.44
2022-12-26T20:37:25.649Z,101084.66
2022-12-26T20:42:27.069Z,101096.72
2022-12-26T20:47:30.186Z,101124.31
2022-12-26T20:52:31.599Z,101117.41
2022-12-26T20:57:33.070Z,101103.63
2022-12-26T21:02:34.710Z,101102.75
2022-12-26T21:07:36.346Z,101112.16
2022-12-26T21:12:37.835Z,101121.63
2022-12-26T21:17:39.500Z,101126.69
2022-12-26T21:22:41.652Z,101136.19
2022-12-26T21:27:43.343Z,101143.97
2022-12-26T21:32:46.215Z,101141.34
2022-12-26T21:37:53.517Z,101143.88
2022-12-26T21:42:55.022Z,101150.78
2022-12-26T21:47:56.548Z,101161.09
2022-12-26T21:52:58.004Z,101171.41
2022-12-26T21:58:00.576Z,101170.56
2022-12-26T22:03:21.641Z,101174.00
2022-12-26T22:08:23.146Z,101170.47
2022-12-26T22:13:25.839Z,101177.34
2022-12-26T22:18:27.449Z,101187.66
2022-12-26T22:23:28.977Z,101198.00
2022-12-26T22:28:31.422Z,101212.66
2022-12-26T22:33:33.479Z,101197.22
2022-12-26T22:38:36.743Z,101192.94
2022-12-26T22:43:38.299Z,101210.09
2022-12-26T22:48:40.120Z,101201.44
2022-12-26T22:53:42.284Z,101216.03
2022-12-26T22:58:43.779Z,101214.25
2022-12-26T23:03:45.867Z,101227.94
2022-12-26T23:08:48.834Z,101231.34
2022-12-26T23:13:50.575Z,101246.88
2022-12-26T23:19:16.142Z,101243.53
2022-12-26T23:24:19.170Z,101241.78
2022-12-26T23:29:41.761Z,101232.28
2022-12-26T23:34:43.234Z,101235.75
2022-12-26T23:39:44.728Z,101260.81
2022-12-26T23:44:46.325Z,101227.28
2022-12-26T23:49:47.811Z,101229.88
2022-12-26T23:54:49.303Z,101216.00
2022-12-26T23:59:50.774Z,101208.16
